createdAt,value
2023-02-02T00:02:01.099Z,59.27
2023-02-02T00:04:30.130Z,58.25
2023-02-02T00:06:57.704Z,60.71
2023-02-02T00:09:28.833Z,60.68
2023-02-02T00:11:56.330Z,60.99
2023-02-02T00:14:23.573Z,60.22
2023-02-02T00:16:54.553Z,61.01
2023-02-02T00:19:27.640Z,59.98
2023-02-02T00:21:55.458Z,62.78
2023-02-02T00:24:22.985Z,61.96
2023-02-02T00:26:53.811Z,61.76
2023-02-02T00:29:23.280Z,61.22
2023-02-02T00:31:50.367Z,60.68
2023-02-02T00:34:17.640Z,61.19
2023-02-02T00:36:47.865Z,60.96
2023-02-02T00:39:18.522Z,61.28
2023-02-02T00:41:45.693Z,60.79
2023-02-02T00:44:30.816Z,60.83
2023-02-02T00:46:57.357Z,61.60
2023-02-02T00:49:24.068Z,62.81
2023-02-02T00:51:50.924Z,61.49
2023-02-02T00:54:17.531Z,62.20
2023-02-02T00:56:44.248Z,61.23
2023-02-02T00:59:11.500Z,63.46
2023-02-02T01:01:38.191Z,62.27
2023-02-02T01:04:05.622Z,62.41
2023-02-02T01:06:32.168Z,62.10
2023-02-02T01:08:58.711Z,62.07
2023-02-02T01:11:25.767Z,61.69
2023-02-02T01:13:53.573Z,61.68
2023-02-02T01:16:22.406Z,62.40
2023-02-02T01:18:50.750Z,62.30
2023-02-02T01:21:17.388Z,62.56
2023-02-02T01:23:44.426Z,62.48
2023-02-02T01:26:12.330Z,63.52
2023-02-02T01:28:39.434Z,63.25
2023-02-02T01:31:08.880Z,62.84
2023-02-02T01:33:36.185Z,62.96
2023-02-02T01:36:06.890Z,62.43
2023-02-02T01:38:34.006Z,61.62
2023-02-02T01:41:01.386Z,61.75
2023-02-02T01:43:31.193Z,61.39
2023-02-02T01:45:58.859Z,62.52
2023-02-02T01:48:29.541Z,62.49
2023-02-02T01:51:00.477Z,62.44
2023-02-02T01:53:28.282Z,62.30
2023-02-02T01:55:55.284Z,63.69
2023-02-02T01:58:28.146Z,63.75
2023-02-02T02:00:54.822Z,64.49
2023-02-02T02:03:25.046Z,64.38
2023-02-02T02:05:58.568Z,63.99
2023-02-02T02:08:54.862Z,63.01
2023-02-02T02:11:22.563Z,63.14
2023-02-02T02:14:09.350Z,62.22
2023-02-02T02:16:58.339Z,62.54
2023-02-02T02:20:11.826Z,64.63
2023-02-02T02:23:19.274Z,64.35
2023-02-02T02:26:29.699Z,63.94
2023-02-02T02:29:11.600Z,63.03
2023-02-02T02:32:23.542Z,62.92
2023-02-02T02:34:56.270Z,61.86
2023-02-02T02:37:33.455Z,62.28
2023-02-02T02:40:08.401Z,62.78
2023-02-02T02:42:41.643Z,62.81
2023-02-02T02:45:11.382Z,62.88
2023-02-02T02:47:39.206Z,62.09
2023-02-02T02:50:06.425Z,62.76
2023-02-02T02:52:34.850Z,62.44
2023-02-02T02:55:03.016Z,63.72
2023-02-02T02:57:54.433Z,64.74
2023-02-02T03:01:02.626Z,65.33
2023-02-02T03:03:41.940Z,63.70
2023-02-02T03:06:21.578Z,63.95
2023-02-02T03:09:06.389Z,64.14
2023-02-02T03:11:34.995Z,63.31
2023-02-02T03:14:01.935Z,63.66
2023-02-02T03:16:28.436Z,63.68
2023-02-02T03:18:56.077Z,63.29
2023-02-02T03:21:23.072Z,63.68
2023-02-02T03:23:49.636Z,63.96
2023-02-02T03:26:16.646Z,63.53
2023-02-02T03:28:43.629Z,63.67
2023-02-02T03:31:10.256Z,63.90
2023-02-02T03:33:37.938Z,64.81
2023-02-02T03:36:05.661Z,64.63
2023-02-02T03:38:32.141Z,63.91
2023-02-02T03:40:58.665Z,64.07
2023-02-02T03:43:25.332Z,64.46
2023-02-02T03:46:00.234Z,65.02
2023-02-02T03:48:27.656Z,65.44
2023-02-02T03:50:54.290Z,65.61
2023-02-02T03:53:21.289Z,65.05
2023-02-02T03:55:47.776Z,64.79
2023-02-02T03:58:14.655Z,64.15
2023-02-02T04:00:41.325Z,64.14
2023-02-02T04:03:07.877Z,64.46
2023-02-02T04:05:34.436Z,64.53
2023-02-02T04:08:01.568Z,64.91
2023-02-02T04:10:28.067Z,63.33
2023-02-02T04:12:54.607Z,65.06
2023-02-02T04:15:21.163Z,63.43
2023-02-02T04:17:47.659Z,64.00
2023-02-02T04:20:14.250Z,64.78
2023-02-02T04:22:40.752Z,64.92
2023-02-02T04:25:07.607Z,65.04
2023-02-02T04:27:34.228Z,64.63
2023-02-02T04:30:00.870Z,64.96
2023-02-02T04:32:27.374Z,65.50
2023-02-02T04:34:53.862Z,65.67
2023-02-02T04:37:20.433Z,65.42
2023-02-02T04:39:48.324Z,66.04
2023-02-02T04:42:14.810Z,66.46
2023-02-02T04:44:41.573Z,65.65
2023-02-02T04:47:08.077Z,64.94
2023-02-02T04:49:34.580Z,64.28
2023-02-02T04:52:01.265Z,65.21
2023-02-02T04:54:27.785Z,64.98
2023-02-02T04:56:54.429Z,65.53
2023-02-02T04:59:21.032Z,64.96
2023-02-02T05:01:48.187Z,65.81
2023-02-02T05:04:14.701Z,65.39
2023-02-02T05:06:41.571Z,64.07
2023-02-02T05:09:08.551Z,64.93
2023-02-02T05:11:35.475Z,66.03
2023-02-02T05:14:01.969Z,65.51
2023-02-02T05:16:29.327Z,66.38
2023-02-02T05:18:56.882Z,66.24
2023-02-02T05:21:23.734Z,66.49
2023-02-02T05:23:50.415Z,65.43
2023-02-02T05:26:22.103Z,65.19
2023-02-02T05:28:49.118Z,65.52
2023-02-02T05:31:15.794Z,67.17
2023-02-02T05:33:42.623Z,58.78
2023-02-02T05:36:09.376Z,55.58
2023-02-02T05:38:36.492Z,60.19
2023-02-02T05:41:03.878Z,59.67
2023-02-02T05:43:32.047Z,57.81
2023-02-02T05:45:59.036Z,61.37
2023-02-02T05:48:26.016Z,54.61
2023-02-02T05:51:21.345Z,60.75
2023-02-02T05:53:47.893Z,62.49
2023-02-02T05:56:15.713Z,61.00
2023-02-02T05:58:43.174Z,58.39
2023-02-02T06:01:10.031Z,57.53
2023-02-02T06:03:36.594Z,55.22
2023-02-02T06:06:04.882Z,54.87
2023-02-02T06:08:33.154Z,55.11
2023-02-02T06:10:59.649Z,59.57
2023-02-02T06:13:26.243Z,59.07
2023-02-02T06:15:52.931Z,60.29
2023-02-02T06:18:19.462Z,61.87
2023-02-02T06:20:46.973Z,60.47
2023-02-02T06:23:13.494Z,60.45
2023-02-02T06:25:40.017Z,60.83
2023-02-02T06:28:07.668Z,55.07
2023-02-02T06:30:34.276Z,59.11
2023-02-02T06:33:00.821Z,59.74
2023-02-02T06:35:27.682Z,55.82
2023-02-02T06:37:54.623Z,54.60
2023-02-02T06:40:21.130Z,56.37
2023-02-02T06:42:47.624Z,59.92
2023-02-02T06:45:14.619Z,60.46
2023-02-02T06:47:41.595Z,58.00
2023-02-02T06:50:09.303Z,58.13
2023-02-02T06:52:36.208Z,59.87
2023-02-02T06:55:02.699Z,59.06
2023-02-02T06:57:29.264Z,59.81
2023-02-02T06:59:56.429Z,59.13
2023-02-02T07:02:23.343Z,58.68
2023-02-02T07:04:49.901Z,59.46
2023-02-02T07:07:16.441Z,59.06
2023-02-02T07:09:43.103Z,59.79
2023-02-02T07:12:09.633Z,59.40
2023-02-02T07:14:36.141Z,59.68
2023-02-02T07:17:02.839Z,59.57
2023-02-02T07:19:29.593Z,61.49
2023-02-02T07:21:56.104Z,60.81
2023-02-02T07:24:22.689Z,60.47
2023-02-02T07:26:49.264Z,59.78
2023-02-02T07:29:15.777Z,60.79
2023-02-02T07:31:42.766Z,59.60
2023-02-02T07:34:09.406Z,59.98
2023-02-02T07:36:36.241Z,58.99
2023-02-02T07:39:05.100Z,60.79
2023-02-02T07:41:33.453Z,60.50
2023-02-02T07:44:00.035Z,60.90
2023-02-02T07:46:26.626Z,60.00
2023-02-02T07:48:55.562Z,49.41
2023-02-02T07:51:22.610Z,45.75
2023-02-02T07:53:51.501Z,48.47
2023-02-02T07:56:23.817Z,53.03
2023-02-02T07:58:55.537Z,54.58
2023-02-02T08:01:23.770Z,55.24
2023-02-02T08:03:50.565Z,55.47
2023-02-02T08:06:23.241Z,49.69
2023-02-02T08:08:50.950Z,53.82
2023-02-02T08:11:20.277Z,55.57
2023-02-02T08:13:52.560Z,55.92
2023-02-02T08:16:19.904Z,56.49
2023-02-02T08:18:46.984Z,55.24
2023-02-02T08:21:14.481Z,57.75
2023-02-02T08:23:41.708Z,59.58
2023-02-02T08:26:17.917Z,59.65
2023-02-02T08:28:47.404Z,60.72
2023-02-02T08:31:21.529Z,59.83
2023-02-02T08:33:48.728Z,55.77
2023-02-02T08:36:19.943Z,49.26
2023-02-02T08:38:46.804Z,50.73
2023-02-02T08:41:16.303Z,53.68
2023-02-02T08:43:43.384Z,54.78
2023-02-02T08:46:11.726Z,55.39
2023-02-02T08:48:38.791Z,57.43
2023-02-02T08:51:07.336Z,53.50
2023-02-02T08:53:34.696Z,51.21
2023-02-02T08:56:07.339Z,53.57
2023-02-02T08:58:34.801Z,52.21
2023-02-02T09:01:12.912Z,53.18
2023-02-02T09:03:40.335Z,51.70
2023-02-02T09:06:08.631Z,52.99
2023-02-02T09:08:35.215Z,52.71
2023-02-02T09:11:10.198Z,54.52
2023-02-02T09:13:38.484Z,51.50
2023-02-02T09:16:08.252Z,52.29
2023-02-02T09:18:34.805Z,52.84
2023-02-02T09:21:04.515Z,53.37
2023-02-02T09:23:32.579Z,49.25
2023-02-02T09:26:19.028Z,48.70
2023-02-02T09:28:48.641Z,41.61
2023-02-02T09:31:15.594Z,40.53
2023-02-02T09:33:42.897Z,41.42
2023-02-02T09:36:21.483Z,44.34
2023-02-02T09:38:49.705Z,44.24
2023-02-02T09:41:37.675Z,42.58
2023-02-02T09:44:22.277Z,43.73
2023-02-02T09:47:12.383Z,44.58
2023-02-02T09:49:54.154Z,46.07
2023-02-02T09:52:27.715Z,46.33
2023-02-02T09:55:10.861Z,46.99
2023-02-02T09:57:43.255Z,46.19
2023-02-02T10:00:33.688Z,45.38
2023-02-02T10:03:12.090Z,44.34
2023-02-02T10:06:06.239Z,44.30
2023-02-02T10:08:42.515Z,44.17
2023-02-02T10:11:27.077Z,43.21
2023-02-02T10:13:58.542Z,41.96
2023-02-02T10:16:25.445Z,42.51
2023-02-02T10:19:05.085Z,41.98
2023-02-02T10:21:46.489Z,42.32
2023-02-02T10:24:20.207Z,42.03
2023-02-02T10:26:50.534Z,42.11
2023-02-02T10:29:47.977Z,43.08
2023-02-02T10:32:34.030Z,44.40
2023-02-02T10:35:20.053Z,44.56
2023-02-02T10:38:21.066Z,46.06
2023-02-02T10:41:17.773Z,47.35
2023-02-02T10:44:09.035Z,46.13
2023-02-02T10:46:40.486Z,46.43
2023-02-02T10:49:06.978Z,45.92
2023-02-02T10:51:34.112Z,44.36
2023-02-02T10:54:05.121Z,44.24
2023-02-02T10:56:37.573Z,44.09
2023-02-02T10:59:14.122Z,44.61
2023-02-02T11:01:41.037Z,45.55
2023-02-02T11:04:29.534Z,46.08
2023-02-02T11:06:56.358Z,46.74
2023-02-02T11:09:32.353Z,46.71
2023-02-02T11:12:13.807Z,46.68
2023-02-02T11:14:49.520Z,47.27
2023-02-02T11:17:22.343Z,48.37
2023-02-02T11:19:50.000Z,48.08
2023-02-02T11:22:46.306Z,48.44
2023-02-02T11:25:32.403Z,50.16
2023-02-02T11:27:58.972Z,51.52
2023-02-02T11:30:35.500Z,49.68
2023-02-02T11:33:20.827Z,49.74
2023-02-02T11:35:54.194Z,49.48
2023-02-02T11:38:21.618Z,50.02
2023-02-02T11:41:03.705Z,50.01
2023-02-02T11:43:36.294Z,50.54
2023-02-02T11:46:05.812Z,50.58
2023-02-02T11:48:39.704Z,49.31
2023-02-02T11:51:09.989Z,49.85
2023-02-02T11:54:05.968Z,49.98
2023-02-02T11:56:35.171Z,50.07
2023-02-02T11:59:03.902Z,50.60
2023-02-02T12:01:39.826Z,50.72
2023-02-02T12:04:15.801Z,49.72
2023-02-02T12:06:42.414Z,49.77
2023-02-02T12:09:21.531Z,50.06
2023-02-02T12:12:02.926Z,48.57
2023-02-02T12:14:41.890Z,48.84
2023-02-02T12:17:14.548Z,49.20
2023-02-02T12:19:59.296Z,49.73
2023-02-02T12:22:45.991Z,48.10
2023-02-02T12:25:51.802Z,47.80
2023-02-02T12:28:39.196Z,46.03
2023-02-02T12:31:26.541Z,46.63
2023-02-02T12:34:17.089Z,48.61
2023-02-02T12:36:56.942Z,47.60
2023-02-02T12:39:47.514Z,47.23
2023-02-02T12:42:25.715Z,47.31
2023-02-02T12:45:23.893Z,49.25
2023-02-02T12:48:21.676Z,52.64
2023-02-02T12:51:06.270Z,51.46
2023-02-02T12:54:32.600Z,50.41
2023-02-02T12:56:52.060Z,49.73
2023-02-02T12:59:30.500Z,48.13
2023-02-02T13:02:05.154Z,49.44
2023-02-02T13:04:59.845Z,49.21
2023-02-02T13:07:43.978Z,50.30
2023-02-02T13:10:21.670Z,50.83
2023-02-02T13:13:09.505Z,50.86
2023-02-02T13:15:40.056Z,49.85
2023-02-02T13:18:14.766Z,48.35
2023-02-02T13:20:45.666Z,46.11
2023-02-02T13:23:27.309Z,46.92
2023-02-02T13:26:01.201Z,46.51
2023-02-02T13:28:36.401Z,46.67
2023-02-02T13:31:09.794Z,47.06
2023-02-02T13:33:37.950Z,48.42
2023-02-02T13:36:25.608Z,44.45
2023-02-02T13:38:58.399Z,43.25
2023-02-02T13:41:26.108Z,45.75
2023-02-02T13:44:13.646Z,46.49
2023-02-02T13:46:51.486Z,41.64
2023-02-02T13:49:24.374Z,43.68
2023-02-02T13:51:57.586Z,46.92
2023-02-02T13:54:47.742Z,47.77
2023-02-02T13:57:35.906Z,44.88
2023-02-02T14:00:25.662Z,46.04
2023-02-02T14:03:03.740Z,41.02
2023-02-02T14:05:34.749Z,39.69
2023-02-02T14:08:06.712Z,43.21
2023-02-02T14:10:39.796Z,46.06
2023-02-02T14:13:32.315Z,46.59
2023-02-02T14:16:01.943Z,46.71
2023-02-02T14:18:50.755Z,47.38
2023-02-02T14:21:32.627Z,47.33
2023-02-02T14:24:02.958Z,47.99
2023-02-02T14:26:46.431Z,49.17
2023-02-02T14:29:31.464Z,47.94
2023-02-02T14:32:00.077Z,41.26
2023-02-02T14:34:30.597Z,44.04
2023-02-02T14:37:24.881Z,46.40
2023-02-02T14:39:57.380Z,47.65
2023-02-02T14:42:58.966Z,47.81
2023-02-02T14:45:39.262Z,48.55
2023-02-02T14:48:22.462Z,47.88
2023-02-02T14:50:55.856Z,47.49
2023-02-02T14:53:37.609Z,46.02
2023-02-02T14:56:09.533Z,40.58
2023-02-02T14:58:39.938Z,44.23
2023-02-02T15:01:25.043Z,45.36
2023-02-02T15:04:00.447Z,47.72
2023-02-02T15:06:34.218Z,48.73
2023-02-02T15:09:19.469Z,48.47
2023-02-02T15:12:04.419Z,48.38
2023-02-02T15:15:02.180Z,48.49
2023-02-02T15:17:41.575Z,48.87
2023-02-02T15:20:22.808Z,49.03
2023-02-02T15:23:22.681Z,49.43
2023-02-02T15:25:59.167Z,50.46
2023-02-02T15:28:47.088Z,50.23
2023-02-02T15:31:34.909Z,51.38
2023-02-02T15:34:10.054Z,51.43
2023-02-02T15:36:42.116Z,51.33
2023-02-02T15:39:19.361Z,51.40
2023-02-02T15:41:49.629Z,51.60
2023-02-02T15:44:21.739Z,51.01
2023-02-02T15:46:49.198Z,51.20
2023-02-02T15:49:31.706Z,51.23
2023-02-02T15:52:03.207Z,51.32
2023-02-02T15:54:35.079Z,51.61
2023-02-02T15:57:02.838Z,51.69
2023-02-02T15:59:38.865Z,51.81
2023-02-02T16:02:08.152Z,51.35
2023-02-02T16:04:37.293Z,51.55
2023-02-02T16:07:06.699Z,51.71
2023-02-02T16:09:35.617Z,52.09
2023-02-02T16:12:05.168Z,51.68
2023-02-02T16:14:36.134Z,51.62
2023-02-02T16:17:23.896Z,51.49
2023-02-02T16:19:56.918Z,52.72
2023-02-02T16:22:25.324Z,52.79
2023-02-02T16:24:55.669Z,48.94
2023-02-02T16:27:26.701Z,51.34
2023-02-02T16:29:56.633Z,44.83
2023-02-02T16:32:29.945Z,46.34
2023-02-02T16:34:57.165Z,47.00
2023-02-02T16:37:29.415Z,46.21
2023-02-02T16:39:58.082Z,50.97
2023-02-02T16:42:31.688Z,52.81
2023-02-02T16:44:59.832Z,53.24
2023-02-02T16:47:26.437Z,52.51
2023-02-02T16:50:14.576Z,51.72
2023-02-02T16:53:02.775Z,54.67
2023-02-02T16:55:47.994Z,55.25
2023-02-02T16:58:22.894Z,54.62
2023-02-02T17:01:13.995Z,55.11
2023-02-02T17:03:49.106Z,56.19
2023-02-02T17:06:15.648Z,56.50
2023-02-02T17:08:42.144Z,56.60
2023-02-02T17:11:25.397Z,54.29
2023-02-02T17:13:53.681Z,55.14
2023-02-02T17:16:22.921Z,55.77
2023-02-02T17:18:50.964Z,56.26
2023-02-02T17:21:21.126Z,56.14
2023-02-02T17:23:51.441Z,57.22
2023-02-02T17:26:18.185Z,58.52
2023-02-02T17:28:44.729Z,58.02
2023-02-02T17:31:16.327Z,57.84
2023-02-02T17:33:43.528Z,57.17
2023-02-02T17:36:13.125Z,54.69
2023-02-02T17:38:39.874Z,57.24
2023-02-02T17:41:07.063Z,57.73
2023-02-02T17:43:33.580Z,58.64
2023-02-02T17:46:00.161Z,59.32
2023-02-02T17:48:27.063Z,59.75
2023-02-02T17:50:53.706Z,59.54
2023-02-02T17:53:21.851Z,61.05
2023-02-02T17:55:50.252Z,59.97
2023-02-02T17:58:17.862Z,59.20
2023-02-02T18:00:47.807Z,61.10
2023-02-02T18:03:24.823Z,63.07
2023-02-02T18:05:52.109Z,62.90
2023-02-02T18:08:19.303Z,62.73
2023-02-02T18:10:46.594Z,62.28
2023-02-02T18:13:19.237Z,62.77
2023-02-02T18:15:46.425Z,62.53
2023-02-02T18:18:13.106Z,62.51
2023-02-02T18:20:43.696Z,62.07
2023-02-02T18:23:11.025Z,62.60
2023-02-02T18:25:39.413Z,61.13
2023-02-02T18:28:07.458Z,58.97
2023-02-02T18:30:34.539Z,60.27
2023-02-02T18:33:01.223Z,60.88
2023-02-02T18:35:28.312Z,62.18
2023-02-02T18:37:54.929Z,61.30
2023-02-02T18:40:21.462Z,61.32
2023-02-02T18:42:48.718Z,61.46
2023-02-02T18:45:15.267Z,61.58
2023-02-02T18:47:41.787Z,62.64
2023-02-02T18:50:08.929Z,62.80
2023-02-02T18:52:35.530Z,63.14
2023-02-02T18:55:02.330Z,63.54
2023-02-02T18:57:30.414Z,63.62
2023-02-02T18:59:56.931Z,63.05
2023-02-02T19:02:25.383Z,61.57
2023-02-02T19:05:10.622Z,61.26
2023-02-02T19:07:55.941Z,61.84
2023-02-02T19:10:27.204Z,61.52
2023-02-02T19:13:09.853Z,63.15
2023-02-02T19:15:39.246Z,62.90
2023-02-02T19:18:13.707Z,62.26
2023-02-02T19:20:40.665Z,64.03
2023-02-02T19:23:12.935Z,62.82
2023-02-02T19:25:41.019Z,62.25
2023-02-02T19:28:23.595Z,63.69
2023-02-02T19:30:53.964Z,63.08
2023-02-02T19:33:21.012Z,63.99
2023-02-02T19:35:51.571Z,62.79
2023-02-02T19:38:21.236Z,62.24
2023-02-02T19:40:47.995Z,62.55
2023-02-02T19:43:26.975Z,64.26
2023-02-02T19:45:56.376Z,62.52
2023-02-02T19:48:27.896Z,62.70
2023-02-02T19:50:55.735Z,63.51
2023-02-02T19:53:25.159Z,60.53
2023-02-02T19:55:52.743Z,63.36
2023-02-02T19:58:21.125Z,63.59
2023-02-02T20:00:50.198Z,62.92
2023-02-02T20:03:27.256Z,62.38
2023-02-02T20:05:57.339Z,62.49
2023-02-02T20:08:31.841Z,62.66
2023-02-02T20:11:00.784Z,64.08
2023-02-02T20:13:47.914Z,64.80
2023-02-02T20:16:18.468Z,63.79
2023-02-02T20:18:48.778Z,63.14
2023-02-02T20:21:22.502Z,64.00
2023-02-02T20:23:49.219Z,63.93
2023-02-02T20:26:28.973Z,62.80
2023-02-02T20:28:58.610Z,65.13
2023-02-02T20:31:34.507Z,64.23
2023-02-02T20:34:01.591Z,65.25
2023-02-02T20:36:40.591Z,65.29
2023-02-02T20:39:31.913Z,66.62
2023-02-02T20:41:59.461Z,66.31
2023-02-02T20:44:28.678Z,68.12
2023-02-02T20:46:56.580Z,68.59
2023-02-02T20:49:25.480Z,67.52
2023-02-02T20:51:54.416Z,68.91
2023-02-02T20:54:21.293Z,69.19
2023-02-02T20:56:48.015Z,70.48
2023-02-02T20:59:14.651Z,71.20
2023-02-02T21:01:41.723Z,72.01
2023-02-02T21:04:08.868Z,69.64
2023-02-02T21:06:37.519Z,67.56
2023-02-02T21:09:05.594Z,67.17
2023-02-02T21:11:32.126Z,69.11
2023-02-02T21:13:59.873Z,67.98
2023-02-02T21:16:26.520Z,67.16
2023-02-02T21:18:53.423Z,68.52
2023-02-02T21:21:22.462Z,68.25
2023-02-02T21:23:51.977Z,69.34
2023-02-02T21:26:22.280Z,68.88
2023-02-02T21:28:49.357Z,67.53
2023-02-02T21:31:17.123Z,66.62
2023-02-02T21:33:47.873Z,64.94
2023-02-02T21:36:15.762Z,66.48
2023-02-02T21:38:42.274Z,68.71
2023-02-02T21:41:14.145Z,67.85
2023-02-02T21:43:41.414Z,67.64
2023-02-02T21:46:17.860Z,66.18
2023-02-02T21:48:45.919Z,67.72
2023-02-02T21:51:32.113Z,66.44
2023-02-02T21:53:59.196Z,67.16
2023-02-02T21:56:28.468Z,66.00
2023-02-02T21:58:59.211Z,65.70
2023-02-02T22:01:34.624Z,63.64
2023-02-02T22:04:01.282Z,66.11
2023-02-02T22:06:30.826Z,66.33
2023-02-02T22:09:12.405Z,66.18
2023-02-02T22:11:55.820Z,64.44
2023-02-02T22:14:37.085Z,57.80
2023-02-02T22:17:20.701Z,64.19
2023-02-02T22:19:47.980Z,64.37
2023-02-02T22:22:23.356Z,65.86
2023-02-02T22:24:59.982Z,65.32
2023-02-02T22:27:40.675Z,54.96
2023-02-02T22:30:20.859Z,54.00
2023-02-02T22:32:47.480Z,57.37
2023-02-02T22:35:14.236Z,58.55
2023-02-02T22:37:40.757Z,63.43
2023-02-02T22:40:08.421Z,65.52
2023-02-02T22:42:34.922Z,66.34
2023-02-02T22:45:01.447Z,66.95
2023-02-02T22:47:28.012Z,67.51
2023-02-02T22:49:54.507Z,67.90
2023-02-02T22:52:21.237Z,68.46
2023-02-02T22:54:47.725Z,69.55
2023-02-02T22:57:14.765Z,69.05
2023-02-02T22:59:41.318Z,67.74
2023-02-02T23:02:07.909Z,68.68
2023-02-02T23:04:34.411Z,68.70
2023-02-02T23:07:00.985Z,67.71
2023-02-02T23:09:27.465Z,70.42
2023-02-02T23:11:53.959Z,67.59
2023-02-02T23:14:20.449Z,69.63
2023-02-02T23:16:47.079Z,70.09
2023-02-02T23:19:13.621Z,71.42
2023-02-02T23:21:40.384Z,71.61
2023-02-02T23:24:07.381Z,71.77
2023-02-02T23:26:33.938Z,74.20
2023-02-02T23:29:00.795Z,73.23
2023-02-02T23:31:27.387Z,72.57
2023-02-02T23:33:53.984Z,74.34
2023-02-02T23:36:20.505Z,72.75
2023-02-02T23:38:47.013Z,69.19
2023-02-02T23:41:13.664Z,70.10
2023-02-02T23:43:42.920Z,70.34
2023-02-02T23:46:10.998Z,72.20
2023-02-02T23:48:37.830Z,72.87
2023-02-02T23:51:04.417Z,72.09
2023-02-02T23:53:30.933Z,71.38
2023-02-02T23:55:57.548Z,71.95
2023-02-02T23:58:24.071Z,71.79
